Time;durP1;ratioP1;P1;durP2;ratioP2;P2;SDS_P1;SDS_P2;PMS_P1;PMS_P2;Temp;Humidity;BMP_temperature;BMP_pressure;BME280_temperature;BME280_humidity;BME280_pressure;Samples;Min_cycle;Max_cycle;Signal;HPM_P1;HPM_P2
2023/06/08 00:01:58;;;;;;;;;;;21.90;93.10;;;;;;5094566;28;20266;-45
2023/06/08 00:04:25;;;;;;;;;;;21.90;93.10;;;;;;5096200;28;19908;-43
2023/06/08 00:06:52;;;;;;;;;;;21.90;93.10;;;;;;5095599;28;20460;-43
2023/06/08 00:09:18;;;;;;;;;;;21.90;93.10;;;;;;5094799;28;19959;-48
2023/06/08 00:11:44;;;;;;;;;;;21.90;93.20;;;;;;5095571;28;19912;-43
2023/06/08 00:14:10;;;;;;;;;;;21.90;93.20;;;;;;5095464;28;19919;-44
2023/06/08 00:16:37;;;;;;;;;;;21.90;93.20;;;;;;5095421;28;20320;-44
2023/06/08 00:19:02;;;;;;;;;;;21.90;93.20;;;;;;5095320;28;20337;-45
2023/06/08 00:21:29;;;;;;;;;;;21.90;93.20;;;;;;5093690;28;20011;-45
2023/06/08 00:23:55;;;;;;;;;;;21.90;93.20;;;;;;5113847;28;19966;-44
2023/06/08 00:26:21;;;;;;;;;;;21.90;93.20;;;;;;5115907;28;19908;-44
2023/06/08 00:28:47;;;;;;;;;;;21.90;93.20;;;;;;5115657;28;19912;-43
2023/06/08 00:31:13;;;;;;;;;;;21.90;93.20;;;;;;5104228;28;19978;-43
2023/06/08 00:33:38;;;;;;;;;;;21.80;93.20;;;;;;5095067;28;20362;-43
2023/06/08 00:36:04;;;;;;;;;;;21.90;93.30;;;;;;5095330;28;19908;-47
2023/06/08 00:38:30;;;;;;;;;;;21.90;93.30;;;;;;5094064;28;20418;-43
2023/06/08 00:40:55;;;;;;;;;;;21.90;93.30;;;;;;5094223;28;19957;-44
2023/06/08 00:43:21;;;;;;;;;;;21.90;93.30;;;;;;5094842;28;19908;-46
2023/06/08 00:45:46;;;;;;;;;;;21.80;93.20;;;;;;5095148;28;19912;-45
2023/06/08 00:48:12;;;;;;;;;;;21.90;93.30;;;;;;5094952;28;19920;-44
2023/06/08 00:50:38;;;;;;;;;;;21.80;93.20;;;;;;5093830;28;19923;-42
2023/06/08 00:53:03;;;;;;;;;;;21.90;93.30;;;;;;5095119;28;19919;-43
2023/06/08 00:55:33;;;;;;;;;;;21.90;93.30;;;;;;5076781;28;20294;-42
2023/06/08 00:58:00;;;;;;;;;;;21.80;93.30;;;;;;5094819;28;19995;-46
2023/06/08 01:00:27;;;;;;;;;;;21.80;93.30;;;;;;5093959;28;19919;-44
2023/06/08 01:02:53;;;;;;;;;;;21.80;93.30;;;;;;5094933;28;19915;-44
2023/06/08 01:05:18;;;;;;;;;;;21.80;93.30;;;;;;5094771;28;19908;-45
2023/06/08 01:07:56;;;;;;;;;;;21.80;93.30;;;;;;5094815;28;19908;-43
2023/06/08 01:10:28;;;;;;;;;;;21.80;93.30;;;;;;5093543;28;19916;-44
2023/06/08 01:12:59;;;;;;;;;;;21.80;93.30;;;;;;5094583;28;19912;-44
2023/06/08 01:15:31;;;;;;;;;;;21.80;93.30;;;;;;5094437;28;19912;-43
2023/06/08 01:18:04;;;;;;;;;;;21.80;93.30;;;;;;5094413;28;19915;-44
2023/06/08 01:20:36;;;;;;;;;;;21.80;93.30;;;;;;5092965;28;20359;-43
2023/06/08 01:23:20;;;;;;;;;;;21.80;93.30;;;;;;5105520;28;19962;-46
2023/06/08 01:25:48;;;;;;;;;;;21.80;93.30;;;;;;5115150;28;20362;-45
2023/06/08 01:28:13;;;;;;;;;;;21.80;93.30;;;;;;5114602;28;19908;-42
2023/06/08 01:30:43;;;;;;;;;;;21.80;93.30;;;;;;5105797;28;19926;-43
2023/06/08 01:33:10;;;;;;;;;;;21.80;93.30;;;;;;5094142;28;20317;-44
2023/06/08 01:35:35;;;;;;;;;;;21.80;93.30;;;;;;5094365;28;20011;-45
2023/06/08 01:38:27;;;;;;;;;;;21.80;93.40;;;;;;5092808;28;19944;-43
2023/06/08 01:40:55;;;;;;;;;;;21.80;93.30;;;;;;5088014;28;20317;-45
2023/06/08 01:43:21;;;;;;;;;;;21.80;93.40;;;;;;5094266;28;19915;-43
2023/06/08 01:45:51;;;;;;;;;;;21.80;93.40;;;;;;5093021;28;19912;-43
2023/06/08 01:48:19;;;;;;;;;;;21.80;93.40;;;;;;5093519;28;20290;-43
2023/06/08 01:50:45;;;;;;;;;;;21.80;93.40;;;;;;5094141;28;19916;-45
2023/06/08 01:53:11;;;;;;;;;;;21.80;93.40;;;;;;5094022;28;20264;-46
2023/06/08 01:55:36;;;;;;;;;;;21.80;93.40;;;;;;5094167;28;19915;-43
2023/06/08 01:58:02;;;;;;;;;;;21.80;93.40;;;;;;5093945;28;19948;-47
2023/06/08 02:00:27;;;;;;;;;;;21.80;93.40;;;;;;5093391;28;19998;-44
2023/06/08 02:02:53;;;;;;;;;;;21.80;93.40;;;;;;5094180;28;20277;-42
2023/06/08 02:05:18;;;;;;;;;;;21.80;93.40;;;;;;5093846;28;19908;-44
2023/06/08 02:07:44;;;;;;;;;;;21.80;93.40;;;;;;5093758;28;19915;-43
2023/06/08 02:10:10;;;;;;;;;;;21.80;93.40;;;;;;5093137;28;20010;-46
2023/06/08 02:12:35;;;;;;;;;;;21.80;93.40;;;;;;5094034;28;19916;-42
2023/06/08 02:15:01;;;;;;;;;;;21.70;93.40;;;;;;5094350;28;19999;-43
2023/06/08 02:17:29;;;;;;;;;;;21.80;93.40;;;;;;5094072;28;19909;-45
2023/06/08 02:19:54;;;;;;;;;;;21.80;93.40;;;;;;5092699;28;19916;-43
2023/06/08 02:22:20;;;;;;;;;;;21.70;93.40;;;;;;5097881;28;19912;-43
2023/06/08 02:24:46;;;;;;;;;;;21.70;93.40;;;;;;5097907;28;20455;-43
2023/06/08 02:27:13;;;;;;;;;;;21.70;93.40;;;;;;5097758;28;19908;-43
2023/06/08 02:29:39;;;;;;;;;;;21.70;93.40;;;;;;5096928;28;19956;-43
2023/06/08 02:32:05;;;;;;;;;;;21.70;93.40;;;;;;5079620;28;20464;-43
2023/06/08 02:34:30;;;;;;;;;;;21.70;93.40;;;;;;5079492;28;19940;-42
2023/06/08 02:36:57;;;;;;;;;;;21.70;93.40;;;;;;5097349;28;19908;-43
2023/06/08 02:39:23;;;;;;;;;;;21.70;93.40;;;;;;5095048;28;19961;-44
2023/06/08 02:41:48;;;;;;;;;;;21.70;93.40;;;;;;5097449;28;19916;-42
2023/06/08 02:44:14;;;;;;;;;;;21.70;93.50;;;;;;5097492;28;19963;-43
2023/06/08 02:46:39;;;;;;;;;;;21.70;93.50;;;;;;5097021;28;20424;-44
2023/06/08 02:49:05;;;;;;;;;;;21.70;93.50;;;;;;5096343;28;19959;-42
2023/06/08 02:51:30;;;;;;;;;;;21.70;93.50;;;;;;5097126;28;19912;-43
2023/06/08 02:53:56;;;;;;;;;;;21.70;93.50;;;;;;5097276;28;19909;-42
2023/06/08 02:56:24;;;;;;;;;;;21.70;93.50;;;;;;5097277;28;19908;-42
2023/06/08 02:58:49;;;;;;;;;;;21.70;93.50;;;;;;5078294;28;20289;-42
2023/06/08 03:01:15;;;;;;;;;;;21.70;93.40;;;;;;5097233;28;20003;-44
2023/06/08 03:03:44;;;;;;;;;;;21.70;93.40;;;;;;5096852;28;20359;-43
2023/06/08 03:06:09;;;;;;;;;;;21.70;93.40;;;;;;5097109;28;19912;-46
2023/06/08 03:08:36;;;;;;;;;;;21.70;93.40;;;;;;5096428;28;19931;-44
2023/06/08 03:11:02;;;;;;;;;;;21.70;93.40;;;;;;5076697;28;19924;-44
2023/06/08 03:13:27;;;;;;;;;;;21.70;93.40;;;;;;5076367;28;19909;-43
2023/06/08 03:15:53;;;;;;;;;;;21.70;93.40;;;;;;5076581;28;19908;-42
2023/06/08 03:18:18;;;;;;;;;;;21.70;93.40;;;;;;5076366;28;19931;-44
2023/06/08 03:20:47;;;;;;;;;;;21.70;93.40;;;;;;5090774;28;19919;-44
2023/06/08 03:23:13;;;;;;;;;;;21.70;93.40;;;;;;5109249;28;19908;-43
2023/06/08 03:25:38;;;;;;;;;;;21.70;93.40;;;;;;5116796;28;20354;-44
2023/06/08 03:28:04;;;;;;;;;;;21.70;93.40;;;;;;5117088;28;20314;-45
2023/06/08 03:30:30;;;;;;;;;;;21.70;93.40;;;;;;5105219;28;19919;-42
2023/06/08 03:32:56;;;;;;;;;;;21.70;93.40;;;;;;5096354;28;19916;-43
2023/06/08 03:35:21;;;;;;;;;;;21.70;93.40;;;;;;5096571;28;19954;-47
2023/06/08 03:37:47;;;;;;;;;;;21.70;93.40;;;;;;5076944;28;19912;-43
2023/06/08 03:40:12;;;;;;;;;;;21.70;93.40;;;;;;5095576;28;19914;-46
2023/06/08 03:42:38;;;;;;;;;;;21.70;93.40;;;;;;5096124;28;19908;-43
2023/06/08 03:45:03;;;;;;;;;;;21.70;93.40;;;;;;5096402;28;19931;-42
2023/06/08 03:47:31;;;;;;;;;;;21.70;93.40;;;;;;5095981;28;19927;-46
2023/06/08 03:49:57;;;;;;;;;;;21.70;93.40;;;;;;5095075;28;19916;-43
2023/06/08 03:52:22;;;;;;;;;;;21.70;93.40;;;;;;5095905;28;19912;-42
2023/06/08 03:54:48;;;;;;;;;;;21.70;93.40;;;;;;5095882;28;20263;-45
2023/06/08 03:57:13;;;;;;;;;;;21.80;93.40;;;;;;5096108;28;19915;-43
2023/06/08 03:59:39;;;;;;;;;;;21.80;93.40;;;;;;5094179;28;20096;-43
2023/06/08 04:02:05;;;;;;;;;;;21.80;93.40;;;;;;5095005;28;19916;-45
2023/06/08 04:04:30;;;;;;;;;;;21.80;93.40;;;;;;5095638;28;20247;-44
2023/06/08 04:07:00;;;;;;;;;;;21.80;93.50;;;;;;5095838;28;19908;-44
2023/06/08 04:09:28;;;;;;;;;;;21.80;93.40;;;;;;5095131;28;20002;-44
2023/06/08 04:11:54;;;;;;;;;;;21.80;93.40;;;;;;5095723;28;19950;-44
2023/06/08 04:14:20;;;;;;;;;;;21.80;93.40;;;;;;5094977;28;19963;-43
2023/06/08 04:16:45;;;;;;;;;;;21.80;93.40;;;;;;5095705;28;19908;-45
2023/06/08 04:19:11;;;;;;;;;;;21.80;93.40;;;;;;5094702;28;20395;-42
2023/06/08 04:21:36;;;;;;;;;;;21.80;93.40;;;;;;5095679;28;19926;-44
2023/06/08 04:24:02;;;;;;;;;;;21.80;93.40;;;;;;5115207;28;19922;-44
2023/06/08 04:26:28;;;;;;;;;;;21.80;93.40;;;;;;5115524;28;19915;-45
2023/06/08 04:28:54;;;;;;;;;;;21.80;93.30;;;;;;5115762;28;19914;-44
2023/06/08 04:31:20;;;;;;;;;;;21.80;93.30;;;;;;5094656;28;19920;-47
2023/06/08 04:33:45;;;;;;;;;;;21.90;93.40;;;;;;5095368;28;20279;-43
2023/06/08 04:36:11;;;;;;;;;;;21.90;93.40;;;;;;5095281;28;19908;-42
2023/06/08 04:38:36;;;;;;;;;;;21.90;93.40;;;;;;5093659;28;20401;-42
2023/06/08 04:41:02;;;;;;;;;;;21.90;93.40;;;;;;5094109;28;19919;-43
2023/06/08 04:43:31;;;;;;;;;;;21.90;93.40;;;;;;5094911;28;19949;-44
2023/06/08 04:45:59;;;;;;;;;;;21.90;93.40;;;;;;5094023;28;19908;-44
2023/06/08 04:48:28;;;;;;;;;;;21.90;93.40;;;;;;5093963;28;19913;-42
2023/06/08 04:50:54;;;;;;;;;;;21.90;93.40;;;;;;5094934;28;20030;-43
2023/06/08 04:53:23;;;;;;;;;;;21.90;93.40;;;;;;5094678;28;19916;-45
2023/06/08 04:55:57;;;;;;;;;;;21.90;93.40;;;;;;5094635;28;20332;-43
2023/06/08 04:58:26;;;;;;;;;;;21.90;93.40;;;;;;5094046;28;19958;-43
2023/06/08 05:00:52;;;;;;;;;;;21.90;93.40;;;;;;5094880;28;20321;-44
2023/06/08 05:03:21;;;;;;;;;;;21.90;93.40;;;;;;5094810;28;19908;-42
2023/06/08 05:05:47;;;;;;;;;;;21.90;93.40;;;;;;5076640;28;19943;-46
2023/06/08 05:08:12;;;;;;;;;;;22.00;93.40;;;;;;5093925;28;19915;-43
2023/06/08 05:10:37;;;;;;;;;;;22.00;93.40;;;;;;5094734;28;20369;-42
2023/06/08 05:13:03;;;;;;;;;;;22.00;93.40;;;;;;5094326;28;20006;-42
2023/06/08 05:15:30;;;;;;;;;;;22.00;93.40;;;;;;5094388;28;19908;-43
2023/06/08 05:17:56;;;;;;;;;;;22.00;93.30;;;;;;5094482;28;19984;-44
2023/06/08 05:20:23;;;;;;;;;;;22.00;93.30;;;;;;5093400;28;20446;-46
2023/06/08 05:22:48;;;;;;;;;;;22.00;93.30;;;;;;5103758;28;19907;-44
2023/06/08 05:25:14;;;;;;;;;;;22.00;93.30;;;;;;5114859;28;19915;-43
2023/06/08 05:27:40;;;;;;;;;;;22.00;93.30;;;;;;5114792;28;20358;-43
2023/06/08 05:30:06;;;;;;;;;;;22.00;93.30;;;;;;5094493;28;20427;-44
2023/06/08 05:32:31;;;;;;;;;;;22.00;93.30;;;;;;5089219;28;19912;-45
2023/06/08 05:34:58;;;;;;;;;;;21.90;93.30;;;;;;5100374;28;20246;-43
2023/06/08 05:37:24;;;;;;;;;;;22.00;93.30;;;;;;5114847;28;19907;-42
2023/06/08 05:39:49;;;;;;;;;;;22.00;93.20;;;;;;5094237;28;19912;-43
2023/06/08 05:42:15;;;;;;;;;;;22.00;93.20;;;;;;5076274;28;19992;-43
2023/06/08 05:44:40;;;;;;;;;;;22.00;93.20;;;;;;5093460;28;19962;-44
2023/06/08 05:47:06;;;;;;;;;;;22.00;93.20;;;;;;5075891;28;19916;-45
2023/06/08 05:49:31;;;;;;;;;;;22.00;93.20;;;;;;5076027;28;20242;-42
2023/06/08 05:51:57;;;;;;;;;;;22.00;93.20;;;;;;5093686;28;19912;-43
2023/06/08 05:54:22;;;;;;;;;;;22.00;93.20;;;;;;5093124;28;20339;-43
2023/06/08 05:56:48;;;;;;;;;;;22.00;93.20;;;;;;5090692;28;19923;-44
2023/06/08 05:59:13;;;;;;;;;;;22.00;93.20;;;;;;5098423;28;19904;-43
2023/06/08 06:01:39;;;;;;;;;;;21.90;93.20;;;;;;5098335;28;19912;-44
2023/06/08 06:04:05;;;;;;;;;;;22.00;93.20;;;;;;5098125;28;19904;-43
2023/06/08 06:06:32;;;;;;;;;;;22.00;93.20;;;;;;5110411;28;19908;-43
2023/06/08 06:08:57;;;;;;;;;;;22.00;93.20;;;;;;5097345;28;20359;-43
2023/06/08 06:11:23;;;;;;;;;;;22.00;93.20;;;;;;5107681;28;19935;-42
2023/06/08 06:13:48;;;;;;;;;;;22.00;93.20;;;;;;5100867;28;19912;-43
2023/06/08 06:16:14;;;;;;;;;;;22.00;93.20;;;;;;5102125;28;20367;-46
2023/06/08 06:18:39;;;;;;;;;;;22.00;93.20;;;;;;5095649;28;19916;-45
2023/06/08 06:21:05;;;;;;;;;;;22.00;93.20;;;;;;5110355;28;20026;-44
2023/06/08 06:23:30;;;;;;;;;;;22.00;93.10;;;;;;5112765;28;19908;-43
2023/06/08 06:25:56;;;;;;;;;;;22.00;93.10;;;;;;5104350;28;19918;-44
2023/06/08 06:28:21;;;;;;;;;;;22.00;93.10;;;;;;5097589;28;19912;-43
2023/06/08 06:30:47;;;;;;;;;;;22.00;93.10;;;;;;5098971;28;19923;-42
2023/06/08 06:33:12;;;;;;;;;;;22.00;93.10;;;;;;5117975;28;19979;-43
2023/06/08 06:35:37;;;;;;;;;;;22.00;93.10;;;;;;5112968;28;19912;-44
2023/06/08 06:38:03;;;;;;;;;;;22.00;93.10;;;;;;5098092;28;20058;-44
2023/06/08 06:40:28;;;;;;;;;;;22.00;93.10;;;;;;5114349;28;19952;-45
2023/06/08 06:42:54;;;;;;;;;;;22.00;93.10;;;;;;5112351;28;19908;-44
2023/06/08 06:45:20;;;;;;;;;;;22.00;93.10;;;;;;5097034;28;20247;-42
2023/06/08 06:47:45;;;;;;;;;;;22.00;93.10;;;;;;5097693;28;19935;-44
2023/06/08 06:50:11;;;;;;;;;;;22.00;93.10;;;;;;5092093;28;19916;-44
2023/06/08 06:52:36;;;;;;;;;;;22.00;93.10;;;;;;5095552;28;19963;-43
2023/06/08 06:55:02;;;;;;;;;;;22.00;93.10;;;;;;5097538;28;19995;-43
2023/06/08 06:57:28;;;;;;;;;;;22.00;93.10;;;;;;5096937;28;20383;-43
2023/06/08 06:59:54;;;;;;;;;;;22.00;93.10;;;;;;5098309;28;20363;-45
2023/06/08 07:02:19;;;;;;;;;;;22.00;93.20;;;;;;5096262;28;19985;-43
2023/06/08 07:04:45;;;;;;;;;;;22.00;93.30;;;;;;5095798;28;20283;-42
2023/06/08 07:07:10;;;;;;;;;;;22.00;93.30;;;;;;5096642;28;19908;-42
2023/06/08 07:09:36;;;;;;;;;;;22.00;93.30;;;;;;5096406;28;19912;-43
2023/06/08 07:12:01;;;;;;;;;;;22.00;93.40;;;;;;5093650;28;19916;-42
2023/06/08 07:14:27;;;;;;;;;;;22.00;93.40;;;;;;5094191;28;19912;-45
2023/06/08 07:16:52;;;;;;;;;;;22.00;93.40;;;;;;5083327;28;20560;-44
2023/06/08 07:19:18;;;;;;;;;;;22.00;91.90;;;;;;5098854;28;19912;-45
2023/06/08 07:21:43;;;;;;;;;;;22.00;92.00;;;;;;5104870;28;19935;-42
2023/06/08 07:24:09;;;;;;;;;;;22.00;92.30;;;;;;5102444;28;19907;-43
2023/06/08 07:26:34;;;;;;;;;;;22.00;92.60;;;;;;5094689;28;19912;-44
2023/06/08 07:29:00;;;;;;;;;;;22.00;92.70;;;;;;5094012;28;20389;-44
2023/06/08 07:31:27;;;;;;;;;;;22.00;92.80;;;;;;5071772;28;19979;-42
2023/06/08 07:33:53;;;;;;;;;;;22.00;92.90;;;;;;5080805;28;19912;-47
2023/06/08 07:36:20;;;;;;;;;;;22.00;93.00;;;;;;5094571;28;20371;-42
2023/06/08 07:38:46;;;;;;;;;;;22.00;93.00;;;;;;5096734;28;19918;-43
2023/06/08 07:41:11;;;;;;;;;;;22.00;93.00;;;;;;5111403;28;19995;-43
2023/06/08 07:43:36;;;;;;;;;;;22.00;93.10;;;;;;5092621;28;19962;-45
2023/06/08 07:46:02;;;;;;;;;;;22.00;93.20;;;;;;5108258;28;20263;-43
2023/06/08 07:48:27;;;;;;;;;;;22.10;93.20;;;;;;5094927;28;19912;-41
2023/06/08 07:50:53;;;;;;;;;;;22.10;93.30;;;;;;5109541;28;19967;-40
2023/06/08 07:53:20;;;;;;;;;;;22.10;93.30;;;;;;5110505;28;20367;-40
2023/06/08 07:55:45;;;;;;;;;;;22.10;93.30;;;;;;5094178;28;19919;-41
2023/06/08 07:58:11;;;;;;;;;;;22.10;93.30;;;;;;5109171;28;19938;-40
2023/06/08 08:00:37;;;;;;;;;;;22.10;93.30;;;;;;5111652;28;19927;-43
2023/06/08 08:03:03;;;;;;;;;;;22.10;93.30;;;;;;5078999;28;19921;-40
2023/06/08 08:05:29;;;;;;;;;;;22.10;93.40;;;;;;5094842;28;19912;-41
2023/06/08 08:07:55;;;;;;;;;;;22.10;93.30;;;;;;5096467;28;19908;-40
2023/06/08 08:10:20;;;;;;;;;;;22.10;93.30;;;;;;5095923;28;19930;-41
2023/06/08 08:12:46;;;;;;;;;;;22.10;93.30;;;;;;5113809;28;19922;-46
2023/06/08 08:15:11;;;;;;;;;;;22.10;93.30;;;;;;5102269;28;19957;-42
2023/06/08 08:17:37;;;;;;;;;;;22.10;93.30;;;;;;5076904;28;19916;-41
2023/06/08 08:20:04;;;;;;;;;;;22.10;93.30;;;;;;5091430;28;19958;-43
2023/06/08 08:22:31;;;;;;;;;;;22.10;93.30;;;;;;5094297;28;19916;-41
2023/06/08 08:24:57;;;;;;;;;;;22.10;93.30;;;;;;5094767;28;20347;-42
2023/06/08 08:27:22;;;;;;;;;;;22.10;93.40;;;;;;5095440;28;19915;-44
2023/06/08 08:29:48;;;;;;;;;;;22.10;93.40;;;;;;5077133;28;19946;-42
2023/06/08 08:32:13;;;;;;;;;;;22.10;93.40;;;;;;5094984;28;20446;-43
2023/06/08 08:34:39;;;;;;;;;;;22.10;93.40;;;;;;5094035;28;20085;-46
2023/06/08 08:37:04;;;;;;;;;;;22.10;93.40;;;;;;5094329;28;19938;-44
2023/06/08 08:39:30;;;;;;;;;;;22.10;93.40;;;;;;5093978;28;19912;-43
2023/06/08 08:41:56;;;;;;;;;;;22.20;93.40;;;;;;5093883;28;19912;-44
2023/06/08 08:44:22;;;;;;;;;;;22.20;93.40;;;;;;5095061;28;19961;-42
2023/06/08 08:46:48;;;;;;;;;;;22.20;93.40;;;;;;5092912;28;19920;-44
2023/06/08 08:49:18;;;;;;;;;;;22.10;93.40;;;;;;5093782;28;20252;-43
2023/06/08 08:51:51;;;;;;;;;;;22.20;93.40;;;;;;5093732;28;20359;-43
2023/06/08 08:54:17;;;;;;;;;;;22.20;93.40;;;;;;5094984;28;19915;-44
2023/06/08 08:56:43;;;;;;;;;;;22.20;93.40;;;;;;5092054;28;20294;-43
2023/06/08 08:59:09;;;;;;;;;;;22.20;93.40;;;;;;5094522;28;19908;-43
2023/06/08 09:01:34;;;;;;;;;;;22.20;93.40;;;;;;5092563;28;20010;-42
2023/06/08 09:04:00;;;;;;;;;;;22.20;93.40;;;;;;5092856;28;19994;-42
2023/06/08 09:06:28;;;;;;;;;;;22.20;93.40;;;;;;5092374;28;19934;-44
2023/06/08 09:08:53;;;;;;;;;;;22.20;93.40;;;;;;5076235;28;19908;-45
2023/06/08 09:11:19;;;;;;;;;;;22.20;93.40;;;;;;5093060;28;19923;-43
2023/06/08 09:13:44;;;;;;;;;;;22.20;93.40;;;;;;5101950;28;19920;-42
2023/06/08 09:16:17;;;;;;;;;;;22.20;93.40;;;;;;5093199;28;19916;-43
2023/06/08 09:18:46;;;;;;;;;;;22.20;93.40;;;;;;5093731;28;19919;-43
2023/06/08 09:21:24;;;;;;;;;;;22.20;93.40;;;;;;5102249;28;19927;-42
2023/06/08 09:24:03;;;;;;;;;;;22.20;93.40;;;;;;5094061;28;19957;-43
2023/06/08 09:26:31;;;;;;;;;;;22.20;93.40;;;;;;5101664;28;19957;-44
2023/06/08 09:28:56;;;;;;;;;;;22.20;93.40;;;;;;5096314;28;19973;-44
2023/06/08 09:31:22;;;;;;;;;;;22.20;93.40;;;;;;5114396;28;19947;-43
2023/06/08 09:33:48;;;;;;;;;;;22.20;93.40;;;;;;5110992;28;19920;-45
2023/06/08 09:36:16;;;;;;;;;;;22.20;93.40;;;;;;5095816;28;19916;-43
2023/06/08 09:38:42;;;;;;;;;;;22.20;93.40;;;;;;5094567;28;19994;-41
2023/06/08 09:41:17;;;;;;;;;;;22.20;93.40;;;;;;5093828;28;19908;-46
2023/06/08 09:43:46;;;;;;;;;;;22.20;93.40;;;;;;5094315;28;19953;-43
2023/06/08 09:46:16;;;;;;;;;;;22.20;93.40;;;;;;5098929;28;19992;-41
2023/06/08 09:48:50;;;;;;;;;;;22.30;93.50;;;;;;5095612;28;19920;-43
2023/06/08 09:51:16;;;;;;;;;;;22.20;93.40;;;;;;5114533;28;20354;-42
2023/06/08 09:53:43;;;;;;;;;;;22.30;93.50;;;;;;5105721;28;19948;-49
2023/06/08 09:56:08;;;;;;;;;;;22.30;93.50;;;;;;5092391;28;19958;-43
2023/06/08 09:58:35;;;;;;;;;;;22.20;93.40;;;;;;5092869;28;19987;-42
2023/06/08 10:01:03;;;;;;;;;;;22.20;93.40;;;;;;5099775;28;20388;-42
2023/06/08 10:03:30;;;;;;;;;;;22.20;93.40;;;;;;5113617;28;19908;-42
2023/06/08 10:05:57;;;;;;;;;;;22.30;93.50;;;;;;5086014;28;19913;-43
2023/06/08 10:08:25;;;;;;;;;;;22.20;93.40;;;;;;5090107;28;19916;-41
2023/06/08 10:10:50;;;;;;;;;;;22.20;93.40;;;;;;5107441;28;19965;-41
2023/06/08 10:13:16;;;;;;;;;;;22.30;93.50;;;;;;5097978;28;19916;-41
2023/06/08 10:15:42;;;;;;;;;;;22.20;93.40;;;;;;5092539;28;20373;-42
2023/06/08 10:18:08;;;;;;;;;;;22.30;93.70;;;;;;5091983;28;20025;-45
2023/06/08 10:20:34;;;;;;;;;;;22.30;93.50;;;;;;5091749;28;19947;-41
2023/06/08 10:23:00;;;;;;;;;;;22.20;93.40;;;;;;5105768;28;20025;-42
2023/06/08 10:25:28;;;;;;;;;;;22.20;93.40;;;;;;5099135;28;19916;-42
2023/06/08 10:27:54;;;;;;;;;;;22.20;93.40;;;;;;5091496;28;19912;-42
2023/06/08 10:30:30;;;;;;;;;;;22.30;93.50;;;;;;5092640;28;19927;-41
2023/06/08 10:33:10;;;;;;;;;;;22.20;93.40;;;;;;5090814;28;19923;-42
2023/06/08 10:35:37;;;;;;;;;;;22.20;93.40;;;;;;5091868;28;20034;-43
2023/06/08 10:38:12;;;;;;;;;;;22.20;93.60;;;;;;5092463;28;19957;-42
2023/06/08 10:40:42;;;;;;;;;;;22.20;93.40;;;;;;5098679;28;19912;-43
2023/06/08 10:43:07;;;;;;;;;;;22.20;93.40;;;;;;5087922;28;19936;-41
2023/06/08 10:45:35;;;;;;;;;;;22.20;93.40;;;;;;5075986;28;20359;-40
2023/06/08 10:48:08;;;;;;;;;;;22.20;93.40;;;;;;5072823;28;20264;-43
2023/06/08 10:50:37;;;;;;;;;;;22.20;93.40;;;;;;5074904;28;19912;-41
2023/06/08 10:53:03;;;;;;;;;;;22.20;93.30;;;;;;5076570;28;19915;-41
2023/06/08 10:55:29;;;;;;;;;;;22.20;93.30;;;;;;5077726;28;20006;-41
2023/06/08 10:58:05;;;;;;;;;;;22.20;93.30;;;;;;5083679;28;20344;-42
2023/06/08 11:00:32;;;;;;;;;;;22.20;93.30;;;;;;5097141;28;19998;-40
2023/06/08 11:03:00;;;;;;;;;;;22.20;93.30;;;;;;5080381;28;19914;-42
2023/06/08 11:05:29;;;;;;;;;;;22.20;93.30;;;;;;5089915;28;19927;-43
2023/06/08 11:07:54;;;;;;;;;;;22.20;93.30;;;;;;5091457;28;20007;-40
2023/06/08 11:10:20;;;;;;;;;;;22.20;93.30;;;;;;5076346;28;20003;-41
2023/06/08 11:12:46;;;;;;;;;;;22.20;93.30;;;;;;5075897;28;19917;-41
2023/06/08 11:15:11;;;;;;;;;;;22.20;93.30;;;;;;5083115;28;20413;-40
2023/06/08 11:17:43;;;;;;;;;;;22.20;93.30;;;;;;5096876;28;20010;-42
2023/06/08 11:20:08;;;;;;;;;;;22.20;93.30;;;;;;5095960;28;20003;-43
2023/06/08 11:22:37;;;;;;;;;;;22.20;93.30;;;;;;5085786;28;19919;-41
2023/06/08 11:25:03;;;;;;;;;;;22.20;93.30;;;;;;5073493;28;19908;-42
2023/06/08 11:27:28;;;;;;;;;;;22.20;93.30;;;;;;5074444;28;19912;-42
2023/06/08 11:29:55;;;;;;;;;;;22.20;93.30;;;;;;5074105;28;20295;-41
2023/06/08 11:32:20;;;;;;;;;;;22.20;93.30;;;;;;5073442;28;20375;-41
2023/06/08 11:34:49;;;;;;;;;;;22.20;93.30;;;;;;5074680;28;19916;-41
2023/06/08 11:37:17;;;;;;;;;;;22.20;93.30;;;;;;5075087;28;19919;-41
2023/06/08 11:39:43;;;;;;;;;;;22.20;93.30;;;;;;5075900;28;19904;-42
2023/06/08 11:42:09;;;;;;;;;;;22.20;93.30;;;;;;5076131;28;20242;-40
2023/06/08 11:44:35;;;;;;;;;;;22.20;93.40;;;;;;5074218;28;20383;-42
2023/06/08 11:47:00;;;;;;;;;;;22.20;93.40;;;;;;5085251;28;19926;-41
2023/06/08 11:49:26;;;;;;;;;;;22.20;93.40;;;;;;5096075;28;19958;-41
2023/06/08 11:51:52;;;;;;;;;;;22.20;93.40;;;;;;5096356;28;20350;-41
2023/06/08 11:54:17;;;;;;;;;;;22.20;93.40;;;;;;5095017;28;19908;-41
2023/06/08 11:56:46;;;;;;;;;;;22.20;93.40;;;;;;5095647;28;19949;-42
2023/06/08 11:59:13;;;;;;;;;;;22.20;93.40;;;;;;5077858;28;19904;-40
2023/06/08 12:01:57;;;;;;;;;;;22.20;93.40;;;;;;5077796;28;19907;-42
2023/06/08 12:04:35;;;;;;;;;;;22.20;93.40;;;;;;5095036;28;19915;-41
2023/06/08 12:07:09;;;;;;;;;;;22.20;93.40;;;;;;5095790;28;19918;-42
2023/06/08 12:09:35;;;;;;;;;;;22.20;93.40;;;;;;5095758;28;19915;-41
2023/06/08 12:12:19;;;;;;;;;;;22.20;93.40;;;;;;5077262;28;19912;-41
2023/06/08 12:14:45;;;;;;;;;;;22.20;93.40;;;;;;5094831;28;19961;-43
2023/06/08 12:17:14;;;;;;;;;;;22.20;93.60;;;;;;5092757;28;19918;-41
2023/06/08 12:19:46;;;;;;;;;;;22.20;93.30;;;;;;5099277;28;19916;-41
2023/06/08 12:22:12;;;;;;;;;;;22.20;93.40;;;;;;5098791;28;19907;-43
2023/06/08 12:24:38;;;;;;;;;;;22.20;93.30;;;;;;5094659;28;19981;-40
2023/06/08 12:27:06;;;;;;;;;;;22.20;93.30;;;;;;5093299;28;19908;-41
2023/06/08 12:29:32;;;;;;;;;;;22.20;93.30;;;;;;5095119;28;19912;-41
2023/06/08 12:31:57;;;;;;;;;;;22.20;93.30;;;;;;5099901;28;19915;-41
2023/06/08 12:34:23;;;;;;;;;;;22.20;93.30;;;;;;5103177;28;19966;-42
2023/06/08 12:36:48;;;;;;;;;;;22.20;93.30;;;;;;5094770;28;20259;-41
2023/06/08 12:39:14;;;;;;;;;;;22.20;93.30;;;;;;5099196;28;19957;-41
2023/06/08 12:41:39;;;;;;;;;;;22.20;93.30;;;;;;5105318;28;20026;-40
2023/06/08 12:44:05;;;;;;;;;;;22.20;93.40;;;;;;5094679;28;20455;-41
2023/06/08 12:46:30;;;;;;;;;;;22.20;93.40;;;;;;5092832;28;19951;-40
2023/06/08 12:48:58;;;;;;;;;;;22.20;93.50;;;;;;5076730;28;19912;-41
2023/06/08 12:51:25;;;;;;;;;;;22.20;93.50;;;;;;5094341;28;20287;-41
2023/06/08 12:53:50;;;;;;;;;;;22.20;93.50;;;;;;5076428;28;20393;-40
2023/06/08 12:56:16;;;;;;;;;;;22.20;93.50;;;;;;5094186;28;19916;-42
2023/06/08 12:58:41;;;;;;;;;;;22.20;93.60;;;;;;5115709;28;20303;-43
2023/06/08 13:01:07;;;;;;;;;;;22.20;93.50;;;;;;5115024;28;19955;-40
2023/06/08 13:03:33;;;;;;;;;;;22.20;93.50;;;;;;5099379;28;19920;-40
2023/06/08 13:05:59;;;;;;;;;;;22.20;93.50;;;;;;5092434;28;19912;-42
2023/06/08 13:08:25;;;;;;;;;;;22.20;93.50;;;;;;5095321;28;19962;-41
2023/06/08 13:10:50;;;;;;;;;;;22.20;93.50;;;;;;5094399;28;19923;-43
2023/06/08 13:13:16;;;;;;;;;;;22.20;93.50;;;;;;5094899;28;19912;-42
2023/06/08 13:15:41;;;;;;;;;;;22.20;93.50;;;;;;5114808;28;19911;-40
2023/06/08 13:18:07;;;;;;;;;;;22.20;93.50;;;;;;5075266;28;20408;-41
2023/06/08 13:20:33;;;;;;;;;;;22.20;93.50;;;;;;5074402;28;19961;-42
2023/06/08 13:22:59;;;;;;;;;;;22.20;93.50;;;;;;5109602;28;20006;-41
2023/06/08 13:25:24;;;;;;;;;;;22.20;93.50;;;;;;5094339;28;19915;-41
2023/06/08 13:27:50;;;;;;;;;;;22.20;93.50;;;;;;5093585;28;19916;-41
2023/06/08 13:30:15;;;;;;;;;;;22.20;93.50;;;;;;5094824;28;19912;-44
2023/06/08 13:32:41;;;;;;;;;;;22.20;93.40;;;;;;5094186;28;20436;-44
2023/06/08 13:35:07;;;;;;;;;;;22.20;93.40;;;;;;5107466;28;19912;-43
2023/06/08 13:37:32;;;;;;;;;;;22.20;93.40;;;;;;5100662;28;19912;-42
2023/06/08 13:39:58;;;;;;;;;;;22.20;93.50;;;;;;5092783;28;19918;-42
2023/06/08 13:42:24;;;;;;;;;;;22.20;93.50;;;;;;5083452;28;20014;-45
2023/06/08 13:44:51;;;;;;;;;;;22.20;93.50;;;;;;5114445;28;19907;-43
2023/06/08 13:47:16;;;;;;;;;;;22.20;93.60;;;;;;5110678;28;20344;-41
2023/06/08 13:49:42;;;;;;;;;;;22.20;93.50;;;;;;5114184;28;19959;-41
2023/06/08 13:52:08;;;;;;;;;;;22.20;93.60;;;;;;5105282;28;19951;-40
2023/06/08 13:54:33;;;;;;;;;;;22.30;93.60;;;;;;5112010;28;19955;-43
2023/06/08 13:56:59;;;;;;;;;;;22.30;93.60;;;;;;5103988;28;19912;-42
2023/06/08 13:59:25;;;;;;;;;;;22.30;93.60;;;;;;5084304;28;20408;-43
2023/06/08 14:01:50;;;;;;;;;;;22.30;93.60;;;;;;5104754;28;20387;-41
2023/06/08 14:04:16;;;;;;;;;;;22.30;93.50;;;;;;5102264;28;19912;-40
2023/06/08 14:06:44;;;;;;;;;;;22.30;93.50;;;;;;5111536;28;20060;-40
2023/06/08 14:09:10;;;;;;;;;;;22.30;93.50;;;;;;5106708;28;20373;-41
2023/06/08 14:11:35;;;;;;;;;;;22.30;93.50;;;;;;5110354;28;19920;-42
2023/06/08 14:14:01;;;;;;;;;;;22.40;93.50;;;;;;5111698;28;20357;-46